createdAt,value
2019-06-20T00:00:51.779Z,49.96
2019-06-20T00:01:51.759Z,49.38
2019-06-20T00:02:51.719Z,49.00
2019-06-20T00:03:51.711Z,48.90
2019-06-20T00:04:51.666Z,48.43
2019-06-20T00:05:51.642Z,49.10
2019-06-20T00:06:51.598Z,48.13
2019-06-20T00:07:51.574Z,48.04
2019-06-20T00:08:51.551Z,48.16
2019-06-20T00:09:52.478Z,48.13
2019-06-20T00:10:51.496Z,47.27
2019-06-20T00:11:51.466Z,47.08
2019-06-20T00:13:00.327Z,47.56
2019-06-20T00:13:51.408Z,46.98
2019-06-20T00:14:51.373Z,47.94
2019-06-20T00:15:51.348Z,47.66
2019-06-20T00:16:51.320Z,48.33
2019-06-20T00:17:51.284Z,48.04
2019-06-20T00:18:51.259Z,47.77
2019-06-20T00:19:51.292Z,51.02
2019-06-20T00:20:51.207Z,48.90
2019-06-20T00:21:51.182Z,48.52
2019-06-20T00:22:51.161Z,49.10
2019-06-20T00:23:51.119Z,50.73
2019-06-20T00:24:51.088Z,50.82
2019-06-20T00:25:51.059Z,51.02
2019-06-20T00:26:51.031Z,50.15
2019-06-20T00:27:51.004Z,50.05
2019-06-20T00:28:50.973Z,49.87
2019-06-20T00:29:50.949Z,49.77
2019-06-20T00:30:50.915Z,49.00
2019-06-20T00:31:50.888Z,49.67
2019-06-20T00:32:50.855Z,51.50
2019-06-20T00:33:50.841Z,51.69
2019-06-20T00:34:50.799Z,51.40
2019-06-20T00:35:50.773Z,52.08
2019-06-20T00:36:51.432Z,51.21
2019-06-20T00:37:50.720Z,50.82
2019-06-20T00:38:50.679Z,52.36
2019-06-20T00:39:50.668Z,51.59
2019-06-20T00:40:50.633Z,50.54
2019-06-20T00:41:50.601Z,50.73
2019-06-20T00:42:50.571Z,51.11
2019-06-20T00:43:50.539Z,50.25
2019-06-20T00:44:50.515Z,51.11
2019-06-20T00:45:50.479Z,52.36
2019-06-20T00:46:50.449Z,51.59
2019-06-20T00:47:50.431Z,51.47
2019-06-20T00:48:50.399Z,51.98
2019-06-20T00:49:50.370Z,51.11
2019-06-20T00:50:50.338Z,50.44
2019-06-20T00:51:50.306Z,51.11
2019-06-20T00:52:50.283Z,52.26
2019-06-20T00:53:50.254Z,50.99
2019-06-20T00:54:50.236Z,51.59
2019-06-20T00:55:50.190Z,52.05
2019-06-20T00:56:50.178Z,52.81
2019-06-20T00:57:50.140Z,51.76
2019-06-20T00:58:50.122Z,51.86
2019-06-20T00:59:50.086Z,51.86
2019-06-20T01:00:50.047Z,52.72
2019-06-20T01:01:50.016Z,52.53
2019-06-20T01:02:49.992Z,51.47
2019-06-20T01:03:49.969Z,52.14
2019-06-20T01:04:49.932Z,51.37
2019-06-20T01:05:49.901Z,51.09
2019-06-20T01:06:49.887Z,51.28
2019-06-20T01:07:49.841Z,52.12
2019-06-20T01:08:49.821Z,51.83
2019-06-20T01:09:49.781Z,51.16
2019-06-20T01:10:49.756Z,51.35
2019-06-20T01:11:49.721Z,50.87
2019-06-20T01:12:49.692Z,50.78
2019-06-20T01:13:52.724Z,50.32
2019-06-20T01:14:49.641Z,50.51
2019-06-20T01:15:49.602Z,50.68
2019-06-20T01:16:49.600Z,51.09
2019-06-20T01:17:49.548Z,49.74
2019-06-20T01:18:49.521Z,50.10
2019-06-20T01:19:49.504Z,50.68
2019-06-20T01:20:49.465Z,49.93
2019-06-20T01:21:49.440Z,50.78
2019-06-20T01:22:49.414Z,51.54
2019-06-20T01:23:49.368Z,50.39
2019-06-20T01:24:49.345Z,50.10
2019-06-20T01:25:49.318Z,50.49
2019-06-20T01:26:49.293Z,51.35
2019-06-20T01:27:49.259Z,50.20
2019-06-20T01:28:49.227Z,50.01
2019-06-20T01:29:49.199Z,50.29
2019-06-20T01:30:49.167Z,50.10
2019-06-20T01:31:49.148Z,50.01
2019-06-20T01:32:49.121Z,50.10
2019-06-20T01:33:49.087Z,49.52
2019-06-20T01:34:49.049Z,49.91
2019-06-20T01:35:49.030Z,49.33
2019-06-20T01:36:48.990Z,49.33
2019-06-20T01:37:48.974Z,48.85
2019-06-20T01:38:48.934Z,48.57
2019-06-20T01:39:48.905Z,49.24
2019-06-20T01:40:48.878Z,49.15
2019-06-20T01:41:48.843Z,47.77
2019-06-20T01:42:48.818Z,47.61
2019-06-20T01:43:51.040Z,47.71
2019-06-20T01:44:48.754Z,47.89
2019-06-20T01:45:48.738Z,47.51
2019-06-20T01:46:48.699Z,47.22
2019-06-20T01:47:48.675Z,46.94
2019-06-20T01:48:48.637Z,47.20
2019-06-20T01:49:48.609Z,46.62
2019-06-20T01:50:48.583Z,47.10
2019-06-20T01:51:48.570Z,46.53
2019-06-20T01:52:48.515Z,45.95
2019-06-20T01:53:48.491Z,45.47
2019-06-20T01:54:48.481Z,45.18
2019-06-20T01:55:48.443Z,44.70
2019-06-20T01:56:48.401Z,45.37
2019-06-20T01:57:48.389Z,45.37
2019-06-20T01:58:48.351Z,44.90
2019-06-20T01:59:48.324Z,44.80
2019-06-20T02:00:48.292Z,44.70
2019-06-20T02:01:48.251Z,44.70
2019-06-20T02:02:48.227Z,44.61
2019-06-20T02:03:48.189Z,44.61
2019-06-20T02:04:48.170Z,45.00
2019-06-20T02:05:48.145Z,44.51
2019-06-20T02:06:48.110Z,44.03
2019-06-20T02:07:48.070Z,44.51
2019-06-20T02:08:48.055Z,44.32
2019-06-20T02:09:48.010Z,44.32
2019-06-20T02:10:48.016Z,44.32
2019-06-20T02:11:47.959Z,44.42
2019-06-20T02:12:47.935Z,44.03
2019-06-20T02:13:47.896Z,44.23
2019-06-20T02:14:47.875Z,44.13
2019-06-20T02:15:47.844Z,44.03
2019-06-20T02:16:47.810Z,43.36
2019-06-20T02:17:47.792Z,43.27
2019-06-20T02:18:47.751Z,42.98
2019-06-20T02:19:47.717Z,43.36
2019-06-20T02:20:47.711Z,43.65
2019-06-20T02:21:47.661Z,43.46
2019-06-20T02:22:47.628Z,42.98
2019-06-20T02:23:47.599Z,43.46
2019-06-20T02:24:47.578Z,43.17
2019-06-20T02:25:47.537Z,43.07
2019-06-20T02:26:47.511Z,42.88
2019-06-20T02:27:47.559Z,42.98
2019-06-20T02:28:47.452Z,42.98
2019-06-20T02:29:47.425Z,43.27
2019-06-20T02:30:47.393Z,43.17
2019-06-20T02:31:47.376Z,42.88
2019-06-20T02:32:47.342Z,43.17
2019-06-20T02:33:47.311Z,42.98
2019-06-20T02:34:47.278Z,42.60
2019-06-20T02:35:47.264Z,42.79
2019-06-20T02:36:47.225Z,42.88
2019-06-20T02:37:47.186Z,43.07
2019-06-20T02:38:47.163Z,42.69
2019-06-20T02:39:47.132Z,42.30
2019-06-20T02:40:47.101Z,42.40
2019-06-20T02:41:47.069Z,42.40
2019-06-20T02:42:47.030Z,42.30
2019-06-20T02:43:47.010Z,42.79
2019-06-20T02:44:46.978Z,42.69
2019-06-20T02:45:46.952Z,42.40
2019-06-20T02:46:46.918Z,42.40
2019-06-20T02:47:46.882Z,42.88
2019-06-20T02:48:46.867Z,42.79
2019-06-20T02:49:46.830Z,43.27
2019-06-20T02:50:46.798Z,42.88
2019-06-20T02:51:46.773Z,43.07
2019-06-20T02:52:46.741Z,43.07
2019-06-20T02:53:46.717Z,42.88
2019-06-20T02:54:46.687Z,43.27
2019-06-20T02:55:46.654Z,42.98
2019-06-20T02:56:46.624Z,42.98
2019-06-20T02:57:46.596Z,42.88
2019-06-20T02:58:46.563Z,42.98
2019-06-20T02:59:46.529Z,42.88
2019-06-20T03:00:46.509Z,42.69
2019-06-20T03:01:46.468Z,42.60
2019-06-20T03:02:46.442Z,42.98
2019-06-20T03:03:46.415Z,42.79
2019-06-20T03:04:46.383Z,42.50
2019-06-20T03:05:46.401Z,42.21
2019-06-20T03:06:46.352Z,42.21
2019-06-20T03:07:46.299Z,42.60
2019-06-20T03:08:46.273Z,42.02
2019-06-20T03:09:46.240Z,42.11
2019-06-20T03:10:46.209Z,41.54
2019-06-20T03:11:46.174Z,41.63
2019-06-20T03:12:46.140Z,41.35
2019-06-20T03:13:46.119Z,41.63
2019-06-20T03:14:46.089Z,41.54
2019-06-20T03:15:49.116Z,41.54
2019-06-20T03:16:46.026Z,41.44
2019-06-20T03:17:45.999Z,41.54
2019-06-20T03:18:45.986Z,41.35
2019-06-20T03:19:45.934Z,41.75
2019-06-20T03:20:45.906Z,41.17
2019-06-20T03:21:45.881Z,41.85
2019-06-20T03:22:45.860Z,41.54
2019-06-20T03:23:45.831Z,41.56
2019-06-20T03:24:45.791Z,41.27
2019-06-20T03:25:45.759Z,41.17
2019-06-20T03:26:45.725Z,40.99
2019-06-20T03:27:45.710Z,40.99
2019-06-20T03:28:45.674Z,40.70
2019-06-20T03:29:45.644Z,40.79
2019-06-20T03:30:45.624Z,40.70
2019-06-20T03:31:45.594Z,40.60
2019-06-20T03:32:45.557Z,40.89
2019-06-20T03:33:45.526Z,40.89
2019-06-20T03:34:45.511Z,40.79
2019-06-20T03:35:45.468Z,40.70
2019-06-20T03:36:45.441Z,40.60
2019-06-20T03:37:45.411Z,41.37
2019-06-20T03:38:45.381Z,41.08
2019-06-20T03:39:45.355Z,41.27
2019-06-20T03:40:45.322Z,40.41
2019-06-20T03:41:45.296Z,41.56
2019-06-20T03:42:45.266Z,40.89
2019-06-20T03:43:45.227Z,41.08
2019-06-20T03:44:58.391Z,41.08
2019-06-20T03:45:45.172Z,40.99
2019-06-20T03:46:45.146Z,40.79
2019-06-20T03:47:45.121Z,40.79
2019-06-20T03:48:45.084Z,40.79
2019-06-20T03:49:45.059Z,40.79
2019-06-20T03:50:45.030Z,40.79
2019-06-20T03:51:44.994Z,40.89
2019-06-20T03:52:44.982Z,40.60
2019-06-20T03:53:44.937Z,41.27
2019-06-20T03:54:44.911Z,40.70
2019-06-20T03:55:44.883Z,41.46
2019-06-20T03:56:44.864Z,40.50
2019-06-20T03:57:44.816Z,40.99
2019-06-20T03:58:44.795Z,40.70
2019-06-20T03:59:44.761Z,40.70
2019-06-20T04:00:44.737Z,41.27
2019-06-20T04:01:44.709Z,41.17
2019-06-20T04:02:44.682Z,40.79
2019-06-20T04:03:44.643Z,40.70
2019-06-20T04:04:44.628Z,40.79
2019-06-20T04:05:44.577Z,40.22
2019-06-20T04:06:44.567Z,40.12
2019-06-20T04:07:44.529Z,39.83
2019-06-20T04:08:44.573Z,39.64
2019-06-20T04:09:44.467Z,39.54
2019-06-20T04:10:44.437Z,39.45
2019-06-20T04:11:44.412Z,39.45
2019-06-20T04:12:44.383Z,39.73
2019-06-20T04:13:44.351Z,39.45
2019-06-20T04:14:44.337Z,39.73
2019-06-20T04:15:44.319Z,39.83
2019-06-20T04:16:44.278Z,39.73
2019-06-20T04:17:44.237Z,40.02
2019-06-20T04:18:44.212Z,40.22
2019-06-20T04:19:44.182Z,39.93
2019-06-20T04:20:44.146Z,39.73
2019-06-20T04:21:44.121Z,39.66
2019-06-20T04:22:44.093Z,40.60
2019-06-20T04:23:44.072Z,40.31
2019-06-20T04:24:44.037Z,40.31
2019-06-20T04:25:43.999Z,40.02
2019-06-20T04:26:43.970Z,39.93
2019-06-20T04:27:43.957Z,39.73
2019-06-20T04:28:43.917Z,39.83
2019-06-20T04:29:43.882Z,39.66
2019-06-20T04:30:43.865Z,39.95
2019-06-20T04:31:43.825Z,39.93
2019-06-20T04:32:43.798Z,39.47
2019-06-20T04:33:43.768Z,40.22
2019-06-20T04:34:43.743Z,40.12
2019-06-20T04:35:43.731Z,39.95
2019-06-20T04:36:43.679Z,39.95
2019-06-20T04:37:43.643Z,39.85
2019-06-20T04:38:43.618Z,40.72
2019-06-20T04:39:43.596Z,40.52
2019-06-20T04:40:43.565Z,40.05
2019-06-20T04:41:43.533Z,40.52
2019-06-20T04:42:43.503Z,40.62
2019-06-20T04:43:43.473Z,41.20
2019-06-20T04:44:43.453Z,41.77
2019-06-20T04:45:43.418Z,42.93
2019-06-20T04:46:43.383Z,43.21
2019-06-20T04:47:43.359Z,43.40
2019-06-20T04:48:43.335Z,42.93
2019-06-20T04:49:43.294Z,42.83
2019-06-20T04:50:43.271Z,42.73
2019-06-20T04:51:43.257Z,43.31
2019-06-20T04:52:43.213Z,43.12
2019-06-20T04:53:43.188Z,43.40
2019-06-20T04:54:43.154Z,44.75
2019-06-20T04:55:43.119Z,43.98
2019-06-20T04:56:43.096Z,44.94
2019-06-20T04:57:43.078Z,44.84
2019-06-20T04:58:43.036Z,46.00
2019-06-20T04:59:43.010Z,46.28
2019-06-20T05:00:42.981Z,46.67
2019-06-20T05:01:42.945Z,46.38
2019-06-20T05:02:42.926Z,47.44
2019-06-20T05:03:42.891Z,47.72
2019-06-20T05:04:42.861Z,47.34
2019-06-20T05:05:42.831Z,48.02
2019-06-20T05:06:42.815Z,47.34
2019-06-20T05:07:42.782Z,47.72
2019-06-20T05:08:42.750Z,46.96
2019-06-20T05:09:42.717Z,46.77
2019-06-20T05:10:42.691Z,49.84
2019-06-20T05:11:42.651Z,48.21
2019-06-20T05:12:42.625Z,48.11
2019-06-20T05:13:42.599Z,48.88
2019-06-20T05:14:42.565Z,47.92
2019-06-20T05:15:52.781Z,47.66
2019-06-20T05:16:42.517Z,49.87
2019-06-20T05:17:42.486Z,48.79
2019-06-20T05:18:42.456Z,49.17
2019-06-20T05:19:42.430Z,48.81
2019-06-20T05:20:42.400Z,48.69
2019-06-20T05:21:42.375Z,48.97
2019-06-20T05:22:42.338Z,48.61
2019-06-20T05:23:42.317Z,50.25
2019-06-20T05:24:42.295Z,49.38
2019-06-20T05:25:42.252Z,48.71
2019-06-20T05:26:42.230Z,51.37
2019-06-20T05:27:42.191Z,51.47
2019-06-20T05:28:42.161Z,50.99
2019-06-20T05:29:42.137Z,49.74
2019-06-20T05:30:42.102Z,50.42
2019-06-20T05:31:42.077Z,50.32
2019-06-20T05:32:42.051Z,51.31
2019-06-20T05:33:42.024Z,50.92
2019-06-20T05:34:41.991Z,50.44
2019-06-20T05:35:41.962Z,50.05
2019-06-20T05:36:41.932Z,51.02
2019-06-20T05:37:41.916Z,49.96
2019-06-20T05:38:41.876Z,50.54
2019-06-20T05:39:41.844Z,51.02
2019-06-20T05:40:41.847Z,52.36
2019-06-20T05:41:41.789Z,51.21
2019-06-20T05:42:41.755Z,51.50
2019-06-20T05:43:41.728Z,51.11
2019-06-20T05:44:41.704Z,52.46
2019-06-20T05:45:45.085Z,51.31
2019-06-20T05:46:41.652Z,50.05
2019-06-20T05:47:41.609Z,51.11
2019-06-20T05:48:41.585Z,50.54
2019-06-20T05:49:41.557Z,51.11
2019-06-20T05:50:41.529Z,52.36
2019-06-20T05:51:41.768Z,51.40
2019-06-20T05:52:41.479Z,52.84
2019-06-20T05:53:41.433Z,51.69
2019-06-20T05:54:41.408Z,51.02
2019-06-20T05:55:41.383Z,51.11
2019-06-20T05:56:41.362Z,51.40
2019-06-20T05:57:41.333Z,51.31
2019-06-20T05:58:41.302Z,52.84
2019-06-20T05:59:41.277Z,51.59
2019-06-20T06:00:41.240Z,52.08
2019-06-20T06:01:41.204Z,51.21
2019-06-20T06:02:41.175Z,52.17
2019-06-20T06:03:41.153Z,53.03
2019-06-20T06:04:41.120Z,54.38
2019-06-20T06:05:41.109Z,52.94
2019-06-20T06:06:41.067Z,53.32
2019-06-20T06:07:41.034Z,52.05
2019-06-20T06:08:41.008Z,51.88
2019-06-20T06:09:40.983Z,51.98
2019-06-20T06:10:41.346Z,53.52
2019-06-20T06:11:40.916Z,52.84
2019-06-20T06:12:40.900Z,53.03
2019-06-20T06:13:40.858Z,52.17
2019-06-20T06:14:40.834Z,53.32
2019-06-20T06:15:40.815Z,53.70
2019-06-20T06:16:44.038Z,52.17
2019-06-20T06:17:40.750Z,51.98
2019-06-20T06:18:40.715Z,52.08
2019-06-20T06:19:40.685Z,51.88
2019-06-20T06:20:43.821Z,51.95
2019-06-20T06:21:40.638Z,52.26
2019-06-20T06:22:44.386Z,52.17
2019-06-20T06:23:40.576Z,52.46
2019-06-20T06:24:40.557Z,52.75
2019-06-20T06:25:40.537Z,52.17
2019-06-20T06:26:40.482Z,51.88
2019-06-20T06:27:40.479Z,51.59
2019-06-20T06:28:40.425Z,51.98
2019-06-20T06:29:40.414Z,53.13
2019-06-20T06:30:40.411Z,52.17
2019-06-20T06:31:40.361Z,52.26
2019-06-20T06:32:40.772Z,51.50
2019-06-20T06:33:40.288Z,51.04
2019-06-20T06:34:40.261Z,51.91
2019-06-20T06:35:40.248Z,53.42
2019-06-20T06:36:40.190Z,53.90
2019-06-20T06:37:40.174Z,54.00
2019-06-20T06:38:40.135Z,54.77
2019-06-20T06:39:43.388Z,55.08
2019-06-20T06:40:40.080Z,54.31
2019-06-20T06:41:40.051Z,55.15
2019-06-20T06:42:40.026Z,54.02
2019-06-20T06:43:41.904Z,54.50
2019-06-20T06:44:39.966Z,53.74
2019-06-20T06:45:39.949Z,53.74
2019-06-20T06:46:44.865Z,53.45
2019-06-20T06:47:39.881Z,52.68
2019-06-20T06:48:39.853Z,54.31
2019-06-20T06:49:39.816Z,54.22
2019-06-20T06:50:39.820Z,55.56
2019-06-20T06:51:39.777Z,53.74
2019-06-20T06:52:39.762Z,56.04
2019-06-20T06:53:39.705Z,55.94
2019-06-20T06:54:39.681Z,55.49
2019-06-20T06:55:39.659Z,55.37
2019-06-20T06:56:39.630Z,54.69
2019-06-20T06:57:39.588Z,54.79
2019-06-20T06:58:39.575Z,54.72
2019-06-20T06:59:39.544Z,55.94
2019-06-20T07:00:39.512Z,55.59
2019-06-20T07:01:39.731Z,58.86
2019-06-20T07:02:39.454Z,55.30
2019-06-20T07:03:39.428Z,56.84
2019-06-20T07:04:39.426Z,58.09
2019-06-20T07:05:39.362Z,56.93
2019-06-20T07:06:39.351Z,57.42
2019-06-20T07:07:39.326Z,55.78
2019-06-20T07:08:39.283Z,57.51
2019-06-20T07:09:39.254Z,58.95
2019-06-20T07:10:39.233Z,57.42
2019-06-20T07:11:39.202Z,59.63
2019-06-20T07:12:39.209Z,57.13
2019-06-20T07:13:39.134Z,58.76
2019-06-20T07:14:42.629Z,61.16
2019-06-20T07:15:39.094Z,59.44
2019-06-20T07:16:39.059Z,58.79
2019-06-20T07:17:39.024Z,59.47
2019-06-20T07:18:39.008Z,60.11
2019-06-20T07:19:38.974Z,59.15
2019-06-20T07:20:38.948Z,62.35
2019-06-20T07:21:38.941Z,59.15
2019-06-20T07:22:38.956Z,58.79
2019-06-20T07:23:38.861Z,60.01
2019-06-20T07:24:38.830Z,59.27
2019-06-20T07:25:38.805Z,60.72
2019-06-20T07:26:38.789Z,60.39
2019-06-20T07:27:38.744Z,61.74
2019-06-20T07:28:38.718Z,61.07
2019-06-20T07:29:38.738Z,59.15
2019-06-20T07:30:38.667Z,60.78
2019-06-20T07:31:38.653Z,59.72
2019-06-20T07:32:38.609Z,60.49
2019-06-20T07:33:38.580Z,60.21
2019-06-20T07:34:38.554Z,58.76
2019-06-20T07:35:41.736Z,58.98
2019-06-20T07:36:38.525Z,57.92
2019-06-20T07:37:38.474Z,59.56
2019-06-20T07:38:38.446Z,60.42
2019-06-20T07:39:38.413Z,60.24
2019-06-20T07:40:38.383Z,60.24
2019-06-20T07:41:38.363Z,60.14
2019-06-20T07:42:38.326Z,59.94
2019-06-20T07:43:38.298Z,59.75
2019-06-20T07:44:38.270Z,60.81
2019-06-20T07:45:38.233Z,60.52
2019-06-20T07:46:38.215Z,60.72
2019-06-20T07:47:38.186Z,62.45
2019-06-20T07:48:38.151Z,61.00
2019-06-20T07:49:38.132Z,61.87
2019-06-20T07:50:39.457Z,61.58
2019-06-20T07:51:38.082Z,62.16
2019-06-20T07:52:38.052Z,60.04
2019-06-20T07:53:38.029Z,60.69
2019-06-20T07:54:38.025Z,60.24
2019-06-20T07:55:37.966Z,59.47
2019-06-20T07:56:37.951Z,60.14
2019-06-20T07:57:37.913Z,62.16
2019-06-20T07:58:37.875Z,60.81
2019-06-20T07:59:37.862Z,60.27
2019-06-20T08:00:37.829Z,65.14
2019-06-20T08:01:37.793Z,63.02
2019-06-20T08:02:37.763Z,63.79
2019-06-20T08:03:37.777Z,63.70
2019-06-20T08:04:37.709Z,62.77
2019-06-20T08:05:37.694Z,62.77
2019-06-20T08:06:37.645Z,62.09
2019-06-20T08:07:37.643Z,62.16
2019-06-20T08:08:37.616Z,60.75
2019-06-20T08:09:44.965Z,63.64
2019-06-20T08:10:37.547Z,65.43
2019-06-20T08:11:37.503Z,64.40
2019-06-20T08:12:37.491Z,64.12
2019-06-20T08:13:37.448Z,66.04
2019-06-20T08:14:37.427Z,64.76
2019-06-20T08:15:37.402Z,64.66
2019-06-20T08:16:37.370Z,65.43
2019-06-20T08:17:37.346Z,65.85
2019-06-20T08:18:37.373Z,66.81
2019-06-20T08:19:37.293Z,68.90
2019-06-20T08:20:37.262Z,68.70
2019-06-20T08:21:37.237Z,68.60
2019-06-20T08:22:37.203Z,67.19
2019-06-20T08:23:37.176Z,68.16
2019-06-20T08:24:37.152Z,69.02
2019-06-20T08:25:37.120Z,68.54
2019-06-20T08:26:37.103Z,69.89
2019-06-20T08:27:37.077Z,70.56
2019-06-20T08:28:37.058Z,68.64
2019-06-20T08:29:37.009Z,69.99
2019-06-20T08:30:36.991Z,69.06
2019-06-20T08:31:36.954Z,68.58
2019-06-20T08:32:36.928Z,69.45
2019-06-20T08:33:36.901Z,68.87
2019-06-20T08:34:36.877Z,71.76
2019-06-20T08:35:36.839Z,69.45
2019-06-20T08:36:36.824Z,69.06
2019-06-20T08:37:36.793Z,69.64
2019-06-20T08:38:36.764Z,68.68
2019-06-20T08:39:36.745Z,72.72
2019-06-20T08:40:36.707Z,70.12
2019-06-20T08:41:36.673Z,69.35
2019-06-20T08:42:36.646Z,71.18
2019-06-20T08:43:36.627Z,71.28
2019-06-20T08:44:36.605Z,71.56
2019-06-20T08:45:36.564Z,70.89
2019-06-20T08:46:36.545Z,73.01
2019-06-20T08:47:36.510Z,71.76
2019-06-20T08:48:36.489Z,70.79
2019-06-20T08:49:36.464Z,73.20
2019-06-20T08:50:36.428Z,74.45
2019-06-20T08:51:36.409Z,72.85
2019-06-20T08:52:36.378Z,72.27
2019-06-20T08:53:36.345Z,72.95
2019-06-20T08:54:36.374Z,71.79
2019-06-20T08:55:36.291Z,71.98
2019-06-20T08:56:36.272Z,73.72
2019-06-20T08:57:36.240Z,74.40
2019-06-20T08:58:36.215Z,75.74
2019-06-20T08:59:36.190Z,75.93
2019-06-20T09:00:36.162Z,74.49
2019-06-20T09:01:36.135Z,76.23
2019-06-20T09:02:36.150Z,74.24
2019-06-20T09:03:36.088Z,75.40
2019-06-20T09:04:36.056Z,74.43
2019-06-20T09:05:36.024Z,75.30
2019-06-20T09:06:36.006Z,75.26
2019-06-20T09:07:35.986Z,74.40
2019-06-20T09:08:35.944Z,74.68
2019-06-20T09:09:35.917Z,73.95
2019-06-20T09:10:35.893Z,75.88
2019-06-20T09:11:35.860Z,75.49
2019-06-20T09:12:35.835Z,77.51
2019-06-20T09:13:35.809Z,75.68
2019-06-20T09:14:35.780Z,74.88
2019-06-20T09:15:35.760Z,76.71
2019-06-20T09:16:35.735Z,75.45
2019-06-20T09:17:35.745Z,74.49
2019-06-20T09:18:35.671Z,75.45
2019-06-20T09:19:35.681Z,75.68
2019-06-20T09:20:35.621Z,73.18
2019-06-20T09:21:35.606Z,75.97
2019-06-20T09:22:35.560Z,75.49
2019-06-20T09:23:35.819Z,76.01
2019-06-20T09:24:35.506Z,75.53
2019-06-20T09:25:35.490Z,77.07
2019-06-20T09:26:35.462Z,76.20
2019-06-20T09:27:35.431Z,77.17
2019-06-20T09:28:35.402Z,75.62
2019-06-20T09:29:41.778Z,77.17
2019-06-20T09:30:35.367Z,76.68
2019-06-20T09:31:35.358Z,77.65
2019-06-20T09:32:35.297Z,76.63
2019-06-20T09:33:35.266Z,74.99
2019-06-20T09:34:35.245Z,78.75
2019-06-20T09:35:35.235Z,77.59
2019-06-20T09:36:35.202Z,77.88
2019-06-20T09:37:35.160Z,78.36
2019-06-20T09:38:35.143Z,77.75
2019-06-20T09:39:35.115Z,76.78
2019-06-20T09:40:35.091Z,78.33
2019-06-20T09:41:35.095Z,76.68
2019-06-20T09:42:36.861Z,77.36
2019-06-20T09:43:35.007Z,77.07
2019-06-20T09:44:34.987Z,77.46
2019-06-20T09:45:34.971Z,77.01
2019-06-20T09:46:34.931Z,79.52
2019-06-20T09:47:34.901Z,79.91
2019-06-20T09:48:34.882Z,79.33
2019-06-20T09:49:34.847Z,78.66
2019-06-20T09:50:34.828Z,78.75
2019-06-20T09:51:34.792Z,77.59
2019-06-20T09:52:34.766Z,78.56
2019-06-20T09:53:34.744Z,79.81
2019-06-20T09:54:34.722Z,78.46
2019-06-20T09:55:34.683Z,78.75
2019-06-20T09:56:34.675Z,79.43
2019-06-20T09:57:34.636Z,80.00
2019-06-20T09:58:34.627Z,78.75
2019-06-20T09:59:34.583Z,78.27
2019-06-20T10:00:34.570Z,78.94
2019-06-20T10:01:34.538Z,78.66
2019-06-20T10:02:34.507Z,78.85
2019-06-20T10:03:34.473Z,78.75
2019-06-20T10:04:34.481Z,77.69
2019-06-20T10:05:34.429Z,77.92
2019-06-20T10:06:34.414Z,79.66
2019-06-20T10:07:34.388Z,79.81
2019-06-20T10:08:34.369Z,78.85
2019-06-20T10:09:34.324Z,78.75
2019-06-20T10:10:34.291Z,78.56
2019-06-20T10:11:34.282Z,78.36
2019-06-20T10:12:34.238Z,77.78
2019-06-20T10:13:34.217Z,78.94
2019-06-20T10:14:34.190Z,79.91
2019-06-20T10:15:34.178Z,80.39
2019-06-20T10:16:45.372Z,80.49
2019-06-20T10:17:34.172Z,79.81
2019-06-20T10:18:34.095Z,78.75
2019-06-20T10:19:34.058Z,79.43
2019-06-20T10:20:34.037Z,79.52
2019-06-20T10:21:34.017Z,78.89
2019-06-20T10:22:33.968Z,80.78
2019-06-20T10:23:33.950Z,78.79
2019-06-20T10:24:33.931Z,80.14
2019-06-20T10:25:33.898Z,79.85
2019-06-20T10:26:37.549Z,80.82
2019-06-20T10:27:33.848Z,81.11
2019-06-20T10:28:33.823Z,80.53
2019-06-20T10:29:33.795Z,80.24
2019-06-20T10:30:33.759Z,80.43
2019-06-20T10:31:33.759Z,80.33
2019-06-20T10:32:33.720Z,80.62
2019-06-20T10:33:33.707Z,80.72
2019-06-20T10:34:33.665Z,80.24
2019-06-20T10:35:33.659Z,80.82
2019-06-20T10:36:33.607Z,81.16
2019-06-20T10:37:33.598Z,81.01
2019-06-20T10:38:33.556Z,80.43
2019-06-20T10:39:33.532Z,80.62
2019-06-20T10:40:33.506Z,81.34
2019-06-20T10:41:33.485Z,80.47
2019-06-20T10:42:33.451Z,80.66
2019-06-20T10:43:33.421Z,80.99
2019-06-20T10:44:33.401Z,80.61
2019-06-20T10:45:33.396Z,80.32
2019-06-20T10:46:33.351Z,80.99
2019-06-20T10:47:36.029Z,79.54
2019-06-20T10:48:33.302Z,78.77
2019-06-20T10:49:33.288Z,79.16
2019-06-20T10:50:33.271Z,79.49
2019-06-20T10:51:33.232Z,79.68
2019-06-20T10:52:33.201Z,78.75
2019-06-20T10:53:33.176Z,78.13
2019-06-20T10:54:33.150Z,75.23
2019-06-20T10:55:33.123Z,75.71
2019-06-20T10:56:33.096Z,73.59
2019-06-20T10:57:33.096Z,76.72
2019-06-20T10:58:33.083Z,75.56
2019-06-20T10:59:33.023Z,75.11
2019-06-20T11:00:33.002Z,76.02
2019-06-20T11:01:32.989Z,73.08
2019-06-20T11:02:32.952Z,73.24
2019-06-20T11:03:32.935Z,73.14
2019-06-20T11:04:32.903Z,73.53
2019-06-20T11:05:32.894Z,74.01
2019-06-20T11:06:32.851Z,72.40
2019-06-20T11:07:32.828Z,73.66
2019-06-20T11:08:32.804Z,73.57
2019-06-20T11:09:32.776Z,74.86
2019-06-20T11:10:32.760Z,75.24
2019-06-20T11:11:32.754Z,73.05
2019-06-20T11:12:42.914Z,71.80
2019-06-20T11:13:32.688Z,71.80
2019-06-20T11:14:32.655Z,71.47
2019-06-20T11:15:32.643Z,72.92
2019-06-20T11:16:32.653Z,71.56
2019-06-20T11:17:32.588Z,71.99
2019-06-20T11:18:32.583Z,69.41
2019-06-20T11:19:32.546Z,69.12
2019-06-20T11:20:32.521Z,66.69
2019-06-20T11:21:32.489Z,68.15
2019-06-20T11:22:32.467Z,68.73
2019-06-20T11:23:32.447Z,66.02
2019-06-20T11:24:32.436Z,63.78
2019-06-20T11:25:32.394Z,64.72
2019-06-20T11:26:32.369Z,66.27
2019-06-20T11:27:32.359Z,67.88
2019-06-20T11:28:32.373Z,69.18
2019-06-20T11:29:32.302Z,69.27
2019-06-20T11:30:44.830Z,69.67
2019-06-20T11:31:32.275Z,66.63
2019-06-20T11:32:32.265Z,68.02
2019-06-20T11:33:32.219Z,68.47
2019-06-20T11:34:32.197Z,70.54
2019-06-20T11:35:32.169Z,68.34
2019-06-20T11:36:32.136Z,67.18
2019-06-20T11:37:32.113Z,66.69
2019-06-20T11:38:32.121Z,66.79
2019-06-20T11:39:32.080Z,67.95
2019-06-20T11:40:32.043Z,67.05
2019-06-20T11:41:32.057Z,68.89
2019-06-20T11:42:32.012Z,69.47
2019-06-20T11:43:31.970Z,68.40
2019-06-20T11:44:31.963Z,68.99
2019-06-20T11:45:31.950Z,71.02
2019-06-20T11:46:31.943Z,71.08
2019-06-20T11:47:31.890Z,72.53
2019-06-20T11:48:31.850Z,72.83
2019-06-20T11:49:31.844Z,72.67
2019-06-20T11:50:31.854Z,70.60
2019-06-20T11:51:31.785Z,72.05
2019-06-20T11:52:35.355Z,72.92
2019-06-20T11:53:31.852Z,72.83
2019-06-20T11:54:32.794Z,71.53
2019-06-20T11:55:31.746Z,71.82
2019-06-20T11:56:31.665Z,72.02
2019-06-20T11:57:31.650Z,72.66
2019-06-20T11:58:31.656Z,74.05
2019-06-20T11:59:31.589Z,75.50
2019-06-20T12:00:31.584Z,74.59
2019-06-20T12:01:33.128Z,74.59
2019-06-20T12:02:31.542Z,73.43
2019-06-20T12:03:31.489Z,70.34
2019-06-20T12:04:31.470Z,70.92
2019-06-20T12:05:31.441Z,70.92
2019-06-20T12:06:31.406Z,71.69
2019-06-20T12:07:31.430Z,73.88
2019-06-20T12:08:31.363Z,75.27
2019-06-20T12:09:31.338Z,74.98
2019-06-20T12:10:31.350Z,72.52
2019-06-20T12:11:31.287Z,73.01
2019-06-20T12:12:31.265Z,74.59
2019-06-20T12:13:31.247Z,75.46
2019-06-20T12:14:31.242Z,76.04
2019-06-20T12:15:31.182Z,76.53
2019-06-20T12:16:31.176Z,77.45
2019-06-20T12:17:31.145Z,77.75
2019-06-20T12:18:31.110Z,78.33
2019-06-20T12:19:31.087Z,79.29
2019-06-20T12:20:31.072Z,79.45
2019-06-20T12:21:31.036Z,80.22
2019-06-20T12:22:31.016Z,80.18
2019-06-20T12:23:30.978Z,81.15
2019-06-20T12:24:30.970Z,80.76
2019-06-20T12:25:30.956Z,81.49
2019-06-20T12:26:30.921Z,82.11
2019-06-20T12:27:30.873Z,81.63
2019-06-20T12:28:30.853Z,81.49
2019-06-20T12:29:30.844Z,82.65
2019-06-20T12:30:30.802Z,82.26
2019-06-20T12:31:30.768Z,82.26
2019-06-20T12:32:30.774Z,82.23
2019-06-20T12:33:30.741Z,82.51
2019-06-20T12:34:30.709Z,82.32
2019-06-20T12:35:30.701Z,82.81
2019-06-20T12:36:30.650Z,83.09
2019-06-20T12:37:30.634Z,82.32
2019-06-20T12:38:30.608Z,81.55
2019-06-20T12:39:30.592Z,80.31
2019-06-20T12:40:30.531Z,77.55
2019-06-20T12:41:30.519Z,77.42
2019-06-20T12:42:30.498Z,80.12
2019-06-20T12:43:30.460Z,75.49
2019-06-20T12:44:30.447Z,76.90
2019-06-20T12:45:30.424Z,74.01
2019-06-20T12:46:30.383Z,73.14
2019-06-20T12:47:30.367Z,73.68
2019-06-20T12:48:30.334Z,70.31
2019-06-20T12:49:30.303Z,69.73
2019-06-20T12:50:30.278Z,68.00
2019-06-20T12:51:30.246Z,67.52
2019-06-20T12:52:30.215Z,63.76